Time;durP1;ratioP1;P1;durP2;ratioP2;P2;SDS_P1;SDS_P2;PMS_P1;PMS_P2;Temp;Humidity;BMP_temperature;BMP_pressure;BME280_temperature;BME280_humidity;BME280_pressure;Samples;Min_cycle;Max_cycle;Signal;HPM_P1;HPM_P2
2024/04/16 00:01:43;;;;;;;0.93;0.30;;;5.30;99.90;;;;;;15298773;19;20135;-77
2024/04/16 00:06:43;;;;;;;0.27;0.20;;;5.30;99.90;;;;;;15308535;19;20134;-77
2024/04/16 00:11:44;;;;;;;0.60;0.20;;;5.20;99.90;;;;;;15297720;19;20131;-77
2024/04/16 00:16:44;;;;;;;2.23;0.20;;;5.20;99.90;;;;;;15307203;19;20171;-77
2024/04/16 00:21:45;;;;;;;0.30;0.10;;;5.30;99.90;;;;;;15296962;19;20130;-77
2024/04/16 00:26:45;;;;;;;0.50;0.20;;;5.30;99.90;;;;;;15306403;19;20169;-77
2024/04/16 00:31:46;;;;;;;0.20;0.20;;;5.20;99.90;;;;;;15298686;19;20519;-77
2024/04/16 00:36:46;;;;;;;0.67;0.20;;;5.10;99.90;;;;;;15306115;19;20129;-77
2024/04/16 00:41:47;;;;;;;0.40;0.30;;;5.10;99.90;;;;;;15293544;19;20150;-77
2024/04/16 00:46:48;;;;;;;0.63;0.37;;;5.20;99.90;;;;;;15306982;19;20158;-77
2024/04/16 00:51:50;;;;;;;0.53;0.13;;;5.20;99.90;;;;;;15298830;19;20134;-77
2024/04/16 00:56:51;;;;;;;0.67;0.20;;;5.20;99.90;;;;;;15304391;19;20130;-77
2024/04/16 01:01:55;;;;;;;0.30;0.20;;;5.20;99.90;;;;;;15292032;19;20149;-77
2024/04/16 01:06:56;;;;;;;0.20;0.17;;;5.10;99.90;;;;;;15306330;19;20127;-77
2024/04/16 01:11:58;;;;;;;0.53;0.30;;;5.10;99.90;;;;;;15295956;19;20119;-77
2024/04/16 01:16:59;;;;;;;0.73;0.20;;;5.00;99.90;;;;;;15306097;19;20123;-77
2024/04/16 01:21:59;;;;;;;1.03;0.30;;;5.10;99.90;;;;;;15292365;19;20632;-77
2024/04/16 01:27:00;;;;;;;3.80;0.37;;;5.00;99.90;;;;;;15303860;19;20153;-77
2024/04/16 01:32:00;;;;;;;0.30;0.20;;;5.20;99.90;;;;;;15294917;19;20134;-77
2024/04/16 01:37:01;;;;;;;0.10;0.10;;;5.40;99.90;;;;;;15305065;19;20134;-77
2024/04/16 01:42:01;;;;;;;1.80;0.30;;;5.50;99.90;;;;;;15291788;19;20508;-77
2024/04/16 01:47:02;;;;;;;0.53;0.33;;;5.40;99.90;;;;;;15304442;19;20528;-78
2024/04/16 01:52:03;;;;;;;1.80;0.27;;;5.40;99.90;;;;;;15295448;19;20155;-77
2024/04/16 01:57:05;;;;;;;1.50;0.40;;;5.30;99.90;;;;;;15296056;19;20466;-77
2024/04/16 02:02:07;;;;;;;0.23;0.20;;;5.20;99.90;;;;;;15289446;19;20165;-77
2024/04/16 02:07:08;;;;;;;0.73;0.43;;;5.20;99.90;;;;;;15293985;19;20125;-77
2024/04/16 02:12:09;;;;;;;1.00;0.40;;;5.20;99.90;;;;;;15293398;19;20127;-78
2024/04/16 02:17:09;;;;;;;0.70;0.27;;;5.40;99.90;;;;;;15293219;19;20146;-77
2024/04/16 02:22:10;;;;;;;0.93;0.60;;;5.20;99.90;;;;;;15289330;19;20150;-77
2024/04/16 02:27:11;;;;;;;1.57;0.60;;;5.10;99.90;;;;;;15292419;19;20487;-77
2024/04/16 02:32:11;;;;;;;0.93;0.37;;;5.20;99.90;;;;;;15290027;19;20157;-77
2024/04/16 02:37:12;;;;;;;0.70;0.30;;;5.20;99.90;;;;;;15292881;19;20608;-77
2024/04/16 02:42:13;;;;;;;1.17;0.43;;;5.10;99.90;;;;;;15290568;19;20157;-77
2024/04/16 02:47:13;;;;;;;0.40;0.20;;;5.20;99.90;;;;;;15291437;19;20169;-76
2024/04/16 02:52:14;;;;;;;0.80;0.50;;;5.30;99.90;;;;;;15290475;19;20191;-78
2024/04/16 02:57:14;;;;;;;0.70;0.30;;;5.20;99.90;;;;;;15289235;19;20141;-78
2024/04/16 03:02:15;;;;;;;0.73;0.40;;;5.00;99.90;;;;;;15288395;19;20134;-77
2024/04/16 03:07:16;;;;;;;0.30;0.20;;;4.70;99.90;;;;;;15289973;19;20146;-77
2024/04/16 03:12:16;;;;;;;0.43;0.30;;;4.60;99.90;;;;;;15293994;19;20145;-78
2024/04/16 03:17:17;;;;;;;0.43;0.30;;;4.50;99.90;;;;;;15303320;19;20138;-77
2024/04/16 03:22:17;;;;;;;1.17;0.40;;;4.40;99.90;;;;;;15300636;19;20799;-77
2024/04/16 03:27:18;;;;;;;1.07;0.40;;;4.40;99.90;;;;;;15306508;19;20135;-76
2024/04/16 03:32:21;;;;;;;1.40;1.10;;;4.50;99.90;;;;;;15306002;19;20145;-75
2024/04/16 03:37:21;;;;;;;1.43;0.77;;;4.50;99.90;;;;;;15303115;19;20134;-75
2024/04/16 03:42:22;;;;;;;0.53;0.47;;;4.60;99.90;;;;;;15299411;19;20177;-76
2024/04/16 03:47:22;;;;;;;1.57;0.60;;;4.60;99.90;;;;;;15304076;19;20118;-75
2024/04/16 03:52:25;;;;;;;0.83;0.60;;;4.60;99.90;;;;;;15301949;19;20148;-76
2024/04/16 03:57:25;;;;;;;1.50;1.07;;;4.60;99.90;;;;;;15302622;19;20504;-76
2024/04/16 04:02:26;;;;;;;1.27;0.83;;;4.70;99.90;;;;;;15301071;19;20154;-76
2024/04/16 04:07:26;;;;;;;0.97;0.40;;;4.70;99.90;;;;;;15301935;19;20126;-76
2024/04/16 04:12:27;;;;;;;0.77;0.40;;;4.60;99.90;;;;;;15299218;19;20532;-76
2024/04/16 04:17:28;;;;;;;0.97;0.50;;;4.60;99.90;;;;;;15302689;19;20139;-76
2024/04/16 04:22:28;;;;;;;0.77;0.30;;;4.50;99.90;;;;;;15296901;19;20724;-76
2024/04/16 04:27:28;;;;;;;0.87;0.50;;;4.50;99.90;;;;;;15300010;19;20138;-76
2024/04/16 04:32:30;;;;;;;0.90;0.50;;;4.40;99.90;;;;;;15300009;19;20153;-76
2024/04/16 04:37:30;;;;;;;0.90;0.40;;;4.40;99.90;;;;;;15299654;19;20212;-76
2024/04/16 04:42:31;;;;;;;1.80;1.07;;;4.40;99.90;;;;;;15294117;19;20157;-75
2024/04/16 04:47:31;;;;;;;3.13;1.13;;;4.30;99.90;;;;;;15298538;19;20137;-77
2024/04/16 04:52:32;;;;;;;1.53;1.00;;;4.30;99.90;;;;;;15300238;19;20651;-79
2024/04/16 04:57:32;;;;;;;0.73;0.50;;;4.30;99.90;;;;;;15312164;19;20122;-80
2024/04/16 05:02:33;;;;;;;7.40;1.10;;;4.40;99.90;;;;;;15299028;19;20150;-78
2024/04/16 05:07:33;;;;;;;1.07;0.50;;;4.60;99.90;;;;;;15298618;19;20657;-79
2024/04/16 05:12:34;;;;;;;1.17;0.50;;;4.80;99.90;;;;;;15302059;19;20137;-78
2024/04/16 05:17:34;;;;;;;1.47;0.50;;;5.00;99.90;;;;;;15297699;19;20122;-77
2024/04/16 05:22:36;;;;;;;1.50;0.63;;;5.20;99.90;;;;;;15300098;19;20601;-77
2024/04/16 05:27:37;;;;;;;1.13;0.67;;;5.10;99.90;;;;;;15302763;19;20163;-77
2024/04/16 05:32:38;;;;;;;1.03;0.50;;;5.30;99.90;;;;;;15296965;19;20422;-78
2024/04/16 05:37:39;;;;;;;1.47;0.60;;;5.40;99.90;;;;;;15294657;19;20119;-77
2024/04/16 05:42:40;;;;;;;0.90;0.50;;;5.60;99.90;;;;;;15290163;19;20237;-78
2024/04/16 05:47:41;;;;;;;0.73;0.37;;;5.90;99.90;;;;;;15303014;19;20123;-77
2024/04/16 05:52:41;;;;;;;2.33;0.60;;;6.00;99.90;;;;;;15293490;19;20178;-79
2024/04/16 05:57:42;;;;;;;1.27;0.43;;;6.30;99.90;;;;;;15310251;19;20137;-77
2024/04/16 06:02:43;;;;;;;1.00;0.67;;;6.20;99.90;;;;;;15292105;19;20667;-77
2024/04/16 06:07:44;;;;;;;1.03;0.83;;;6.20;99.90;;;;;;15292394;19;20141;-77
2024/04/16 06:12:44;;;;;;;2.03;0.60;;;6.30;99.90;;;;;;15293303;19;20170;-77
2024/04/16 06:17:45;;;;;;;1.07;0.70;;;6.20;99.90;;;;;;15293234;19;20122;-77
2024/04/16 06:22:48;;;;;;;1.63;0.63;;;6.20;99.90;;;;;;15291038;19;20665;-77
2024/04/16 06:27:51;;;;;;;1.30;0.70;;;6.70;99.90;;;;;;15295941;19;20158;-78
2024/04/16 06:32:52;;;;;;;3.90;2.00;;;6.90;99.90;;;;;;15289971;19;20645;-77
2024/04/16 06:37:52;;;;;;;1.83;0.70;;;7.10;99.90;;;;;;15300173;19;20106;-79
2024/04/16 06:42:54;;;;;;;2.10;1.37;;;6.90;99.90;;;;;;15304196;19;20146;-78
2024/04/16 06:47:54;;;;;;;1.90;0.60;;;6.70;99.90;;;;;;15295258;19;20132;-78
2024/04/16 06:52:55;;;;;;;2.83;1.47;;;6.80;99.90;;;;;;15293517;19;20146;-77
2024/04/16 06:57:57;;;;;;;1.00;0.53;;;6.90;99.90;;;;;;15291792;19;20155;-75
2024/04/16 07:02:58;;;;;;;4.60;0.93;;;7.20;99.90;;;;;;15289331;19;20150;-76
2024/04/16 07:07:58;;;;;;;2.83;0.53;;;7.20;99.90;;;;;;15295985;19;20201;-76
2024/04/16 07:12:59;;;;;;;9.93;0.87;;;7.20;99.90;;;;;;15293551;19;20647;-76
2024/04/16 07:17:59;;;;;;;0.53;0.37;;;7.20;99.90;;;;;;15288601;19;20145;-80
2024/04/16 07:23:01;;;;;;;0.83;0.40;;;7.20;99.90;;;;;;15288425;19;20146;-78
2024/04/16 07:28:02;;;;;;;1.27;0.50;;;7.40;99.90;;;;;;15292611;19;20123;-77
2024/04/16 07:33:03;;;;;;;1.13;0.40;;;7.40;99.90;;;;;;15289445;19;20146;-77
2024/04/16 07:38:04;;;;;;;2.80;1.00;;;7.40;99.90;;;;;;15286789;19;20123;-77
2024/04/16 07:43:04;;;;;;;1.50;0.83;;;7.60;99.90;;;;;;15283975;19;20605;-78
2024/04/16 07:48:05;;;;;;;1.40;0.30;;;7.60;99.90;;;;;;15286056;19;20198;-77
2024/04/16 07:53:06;;;;;;;1.40;0.60;;;8.00;99.90;;;;;;15288194;19;20165;-78
2024/04/16 07:58:06;;;;;;;1.10;0.50;;;8.10;99.90;;;;;;15288111;19;20139;-78
2024/04/16 08:03:10;;;;;;;0.50;0.30;;;8.00;99.90;;;;;;15294149;19;20732;-78
2024/04/16 08:08:10;;;;;;;1.73;0.40;;;8.10;99.90;;;;;;15297994;19;20135;-77
2024/04/16 08:13:12;;;;;;;0.90;0.50;;;8.20;99.90;;;;;;15297147;19;20680;-77
2024/04/16 08:18:13;;;;;;;1.00;0.50;;;8.30;99.90;;;;;;15301276;19;20122;-78
2024/04/16 08:23:13;;;;;;;1.03;0.50;;;8.30;99.90;;;;;;15296926;19;20134;-78
2024/04/16 08:28:14;;;;;;;0.50;0.20;;;8.30;99.90;;;;;;15301089;19;20594;-78
2024/04/16 08:33:17;;;;;;;0.57;0.23;;;8.40;99.90;;;;;;15300288;19;20134;-77
2024/04/16 08:38:18;;;;;;;0.87;0.40;;;8.30;99.90;;;;;;15298683;19;20137;-77
2024/04/16 08:43:20;;;;;;;1.60;0.87;;;8.50;99.90;;;;;;15295150;19;20162;-78
2024/04/16 08:48:22;;;;;;;0.47;0.30;;;8.80;99.90;;;;;;15298040;19;20137;-78
2024/04/16 08:53:23;;;;;;;11.37;1.23;;;8.80;99.90;;;;;;15304813;19;20625;-78
2024/04/16 08:58:24;;;;;;;31.03;0.73;;;8.90;99.90;;;;;;15299438;19;20868;-77
2024/04/16 09:03:26;;;;;;;1.70;0.30;;;9.00;99.90;;;;;;15293360;19;20171;-77
2024/04/16 09:08:28;;;;;;;1.80;0.87;;;8.90;99.90;;;;;;15296743;19;20141;-77
2024/04/16 09:13:28;;;;;;;0.40;0.30;;;8.90;99.90;;;;;;15297968;19;20157;-76
2024/04/16 09:18:29;;;;;;;0.57;0.30;;;9.30;99.90;;;;;;15301864;19;20132;-77
2024/04/16 09:23:29;;;;;;;0.40;0.40;;;9.60;99.90;;;;;;15295447;19;20496;-77
2024/04/16 09:28:30;;;;;;;1.60;0.50;;;9.40;99.90;;;;;;15297163;19;20133;-78
2024/04/16 09:33:32;;;;;;;1.70;0.47;;;9.60;99.90;;;;;;15297381;19;20178;-77
2024/04/16 09:38:43;;;;;;;1.33;0.57;;;9.40;99.90;;;;;;15295914;19;20130;-78
2024/04/16 09:43:44;;;;;;;3.07;0.50;;;9.40;99.90;;;;;;15298192;19;20715;-78
2024/04/16 09:48:46;;;;;;;1.23;0.60;;;9.90;99.90;;;;;;15297639;19;20114;-78
2024/04/16 09:53:49;;;;;;;0.93;0.30;;;9.90;99.90;;;;;;15296407;19;20614;-77
2024/04/16 09:58:53;;;;;;;0.97;0.30;;;10.00;99.90;;;;;;15293058;19;20133;-77
2024/04/16 10:03:54;;;;;;;0.70;0.30;;;9.60;99.90;;;;;;15292603;19;20180;-78
2024/04/16 10:08:55;;;;;;;1.27;0.30;;;9.70;99.90;;;;;;15290489;19;20193;-78
2024/04/16 10:13:56;;;;;;;3.03;0.30;;;9.80;99.90;;;;;;15293970;19;20150;-77
2024/04/16 10:18:57;;;;;;;2.00;0.77;;;9.40;99.90;;;;;;15303337;19;20130;-78
2024/04/16 10:24:01;;;;;;;0.23;0.20;;;9.30;99.90;;;;;;15293273;19;20229;-77
2024/04/16 10:29:02;;;;;;;1.57;1.17;;;9.20;99.90;;;;;;15293064;19;20127;-75
2024/04/16 10:34:02;;;;;;;0.63;0.40;;;9.30;99.90;;;;;;15290459;19;20178;-77
2024/04/16 10:39:10;;;;;;;1.37;0.87;;;8.90;99.90;;;;;;15292209;19;20141;-77
2024/04/16 10:44:11;;;;;;;0.77;0.40;;;8.80;99.90;;;;;;15292045;19;20150;-77
2024/04/16 10:49:12;;;;;;;0.17;0.17;;;8.90;99.90;;;;;;15287932;19;20529;-77
2024/04/16 10:54:12;;;;;;;0.77;0.30;;;9.30;99.90;;;;;;15295229;19;20159;-78
2024/04/16 10:59:15;;;;;;;0.77;0.50;;;9.50;99.90;;;;;;15310634;19;20130;-77
2024/04/16 11:04:17;;;;;;;0.93;0.40;;;9.30;99.90;;;;;;15309526;19;20150;-78
2024/04/16 11:09:18;;;;;;;0.30;0.30;;;9.60;99.90;;;;;;15300850;19;20141;-78
2024/04/16 11:14:18;;;;;;;0.43;0.30;;;9.90;99.90;;;;;;15301628;19;20449;-79
2024/04/16 11:19:20;;;;;;;0.20;0.20;;;9.90;99.90;;;;;;15302762;19;20129;-78
2024/04/16 11:24:22;;;;;;;0.87;0.40;;;9.70;99.90;;;;;;15294180;19;20656;-77
2024/04/16 11:29:23;;;;;;;0.10;0.10;;;9.60;99.90;;;;;;15305794;19;20118;-78
2024/04/16 11:34:24;;;;;;;0.20;0.10;;;10.20;99.90;;;;;;15313423;19;20161;-77
2024/04/16 11:39:28;;;;;;;0.43;0.33;;;9.90;99.90;;;;;;15325421;19;20773;-79
2024/04/16 11:44:29;;;;;;;0.30;0.20;;;10.10;99.90;;;;;;15325859;19;20222;-80
2024/04/16 11:49:30;;;;;;;0.33;0.20;;;10.60;99.90;;;;;;15316220;19;20130;-78
2024/04/16 11:54:36;;;;;;;0.30;0.20;;;10.50;99.90;;;;;;15311739;19;20173;-78
2024/04/16 11:59:37;;;;;;;0.80;0.20;;;10.10;99.90;;;;;;15305551;19;20137;-78
2024/04/16 12:04:37;;;;;;;0.10;0.10;;;9.70;99.90;;;;;;15311891;19;20138;-79
2024/04/16 12:09:38;;;;;;;0.10;0.10;;;9.90;99.90;;;;;;15316881;19;20506;-80
2024/04/16 12:14:38;;;;;;;0.50;0.20;;;10.00;99.90;;;;;;15312369;19;20177;-80
2024/04/16 12:19:39;;;;;;;0.47;0.20;;;9.80;99.90;;;;;;15330369;19;20119;-79
2024/04/16 12:24:39;;;;;;;0.90;0.70;;;9.40;99.90;;;;;;15337029;19;20239;-79
2024/04/16 12:29:40;;;;;;;1.80;0.20;;;9.40;99.90;;;;;;15317206;19;20129;-80
2024/04/16 12:34:40;;;;;;;0.30;0.20;;;9.50;99.90;;;;;;15329136;19;20206;-80
2024/04/16 12:39:41;;;;;;;1.33;0.30;;;10.00;99.90;;;;;;15318173;19;20142;-80
2024/04/16 12:44:42;;;;;;;0.83;0.30;;;10.90;99.90;;;;;;15302331;19;20153;-78
2024/04/16 12:49:43;;;;;;;0.93;0.27;;;11.20;99.90;;;;;;15303922;19;20169;-78
2024/04/16 12:54:43;;;;;;;0.20;0.10;;;11.30;99.90;;;;;;15304549;19;20150;-78
2024/04/16 12:59:44;;;;;;;0.00;0.00;;;11.50;99.90;;;;;;15303564;19;20145;-78
2024/04/16 13:04:44;;;;;;;0.10;0.10;;;11.70;99.90;;;;;;15301311;19;20138;-78
2024/04/16 13:09:45;;;;;;;0.17;0.17;;;11.40;99.90;;;;;;15297897;19;20110;-78
2024/04/16 13:14:45;;;;;;;0.53;0.20;;;11.30;99.90;;;;;;15312393;19;20174;-78
2024/04/16 13:19:49;;;;;;;0.50;0.30;;;11.30;99.90;;;;;;15301445;19;20159;-77
2024/04/16 13:24:49;;;;;;;0.20;0.10;;;11.10;99.90;;;;;;15301669;19;20154;-78
2024/04/16 13:29:50;;;;;;;1.20;0.23;;;11.40;99.90;;;;;;15297837;19;20145;-78
2024/04/16 13:34:51;;;;;;;0.47;0.20;;;11.80;99.90;;;;;;15297455;19;20170;-77
2024/04/16 13:39:51;;;;;;;0.10;0.10;;;11.50;99.90;;;;;;15297529;19;20143;-79
2024/04/16 13:44:52;;;;;;;0.10;0.10;;;11.50;99.90;;;;;;15303046;19;20497;-78
2024/04/16 13:49:53;;;;;;;0.40;0.20;;;11.50;99.90;;;;;;15298992;19;20618;-78
2024/04/16 13:54:53;;;;;;;0.17;0.17;;;11.60;99.90;;;;;;15298618;19;20177;-77
2024/04/16 13:59:54;;;;;;;0.10;0.10;;;11.90;99.90;;;;;;15295554;19;20133;-78
2024/04/16 14:04:54;;;;;;;0.43;0.15;;;12.10;99.90;;;;;;15296225;19;20166;-78
2024/04/16 14:09:55;;;;;;;0.50;0.30;;;12.00;99.90;;;;;;15294758;19;20592;-78
2024/04/16 14:14:55;;;;;;;1.50;0.27;;;12.20;99.90;;;;;;15299085;19;20148;-78
2024/04/16 14:19:56;;;;;;;1.07;0.70;;;11.80;99.90;;;;;;15301008;19;20511;-78
2024/04/16 14:24:59;;;;;;;2.08;0.30;;;12.10;99.90;;;;;;15296933;19;20163;-77
2024/04/16 14:30:01;;;;;;;1.00;0.20;;;12.20;99.90;;;;;;15288050;19;20142;-78
2024/04/16 14:35:01;;;;;;;1.23;0.23;;;12.10;99.90;;;;;;15298551;19;20248;-78
2024/04/16 14:40:02;;;;;;;0.30;0.10;;;11.80;99.90;;;;;;15295439;19;20130;-77
2024/04/16 14:45:03;;;;;;;0.15;0.10;;;12.00;99.90;;;;;;15294978;19;20174;-78
2024/04/16 14:50:04;;;;;;;1.83;0.30;;;12.30;99.90;;;;;;15294266;19;20160;-78
2024/04/16 14:55:05;;;;;;;0.20;0.10;;;12.60;99.90;;;;;;15291011;19;20184;-79
2024/04/16 15:00:06;;;;;;;1.90;0.47;;;12.30;99.90;;;;;;15302143;19;20119;-80
2024/04/16 15:05:07;;;;;;;2.57;0.27;;;11.90;99.90;;;;;;15300920;19;20205;-78
2024/04/16 15:10:08;;;;;;;1.03;0.40;;;11.80;99.90;;;;;;15304189;19;20431;-76
2024/04/16 15:15:09;;;;;;;0.73;0.40;;;11.90;99.90;;;;;;15293471;19;20134;-77
2024/04/16 15:20:09;;;;;;;0.40;0.20;;;12.10;99.90;;;;;;15294307;19;20133;-77
2024/04/16 15:25:12;;;;;;;0.50;0.20;;;12.00;99.90;;;;;;15293594;19;20172;-79
2024/04/16 15:30:13;;;;;;;2.67;0.30;;;11.30;99.90;;;;;;15313839;19;20209;-78
2024/04/16 15:35:14;;;;;;;0.40;0.20;;;11.20;99.90;;;;;;15293320;19;20575;-78
2024/04/16 15:40:14;;;;;;;0.10;0.10;;;11.70;99.90;;;;;;15301426;19;20195;-78
2024/04/16 15:45:15;;;;;;;0.50;0.30;;;12.10;99.90;;;;;;15296453;19;20142;-80
2024/04/16 15:50:15;;;;;;;1.93;0.50;;;11.50;99.90;;;;;;15299775;19;20201;-78
2024/04/16 15:55:16;;;;;;;0.87;0.23;;;11.40;99.90;;;;;;15293799;19;20177;-78
2024/04/16 16:00:17;;;;;;;0.00;0.00;;;11.50;99.90;;;;;;15294005;19;20126;-79
2024/04/16 16:05:18;;;;;;;0.10;0.10;;;11.10;99.90;;;;;;15292602;19;20135;-78
2024/04/16 16:10:19;;;;;;;0.33;0.30;;;10.50;99.90;;;;;;15295652;19;20232;-78
2024/04/16 16:15:20;;;;;;;0.27;0.20;;;10.60;99.90;;;;;;15294925;19;20153;-79
2024/04/16 16:20:20;;;;;;;0.40;0.20;;;10.90;99.90;;;;;;15309706;19;20130;-78
2024/04/16 16:25:21;;;;;;;0.17;0.10;;;11.10;99.90;;;;;;15304973;19;20176;-79
2024/04/16 16:30:22;;;;;;;0.10;0.10;;;11.20;99.90;;;;;;15307545;19;20149;-77
2024/04/16 16:35:23;;;;;;;0.77;0.30;;;11.20;99.90;;;;;;15302752;19;20174;-78
2024/04/16 16:40:23;;;;;;;0.30;0.23;;;10.90;99.90;;;;;;15309089;19;20127;-78
2024/04/16 16:45:24;;;;;;;0.50;0.20;;;10.30;99.90;;;;;;15297146;19;20173;-81
2024/04/16 16:50:25;;;;;;;1.43;0.27;;;10.00;99.90;;;;;;15294688;19;20129;-79
2024/04/16 16:55:26;;;;;;;0.73;0.20;;;10.00;99.90;;;;;;15303920;19;20643;-78
2024/04/16 17:00:28;;;;;;;0.30;0.20;;;10.00;99.90;;;;;;15304043;19;20110;-81
2024/04/16 17:05:28;;;;;;;1.03;0.30;;;10.00;99.90;;;;;;15312144;19;20150;-79
2024/04/16 17:10:29;;;;;;;0.77;0.20;;;10.00;99.90;;;;;;15302962;19;20138;-79
2024/04/16 17:15:29;;;;;;;0.30;0.17;;;10.10;99.90;;;;;;15298165;19;20166;-79
2024/04/16 17:20:30;;;;;;;0.60;0.20;;;10.00;99.90;;;;;;15294513;19;20125;-78
2024/04/16 17:25:31;;;;;;;0.33;0.20;;;10.00;99.90;;;;;;15294370;19;20178;-79
2024/04/16 17:30:31;;;;;;;0.30;0.30;;;10.00;99.90;;;;;;15296690;19;20150;-78
2024/04/16 17:35:32;;;;;;;0.30;0.20;;;9.80;99.90;;;;;;15301125;19;20474;-78
2024/04/16 17:40:32;;;;;;;0.20;0.20;;;9.80;99.90;;;;;;15296737;19;20115;-78
2024/04/16 17:45:33;;;;;;;0.30;0.20;;;10.00;99.90;;;;;;15298219;19;20143;-78
2024/04/16 17:50:33;;;;;;;0.23;0.20;;;9.70;99.90;;;;;;15295346;19;20194;-78
2024/04/16 17:55:34;;;;;;;2.33;0.87;;;9.60;99.90;;;;;;15296625;19;20225;-78
2024/04/16 18:00:34;;;;;;;0.50;0.20;;;9.50;99.90;;;;;;15287712;19;20827;-78
2024/04/16 18:05:35;;;;;;;1.77;1.07;;;9.40;99.90;;;;;;15292360;19;20747;-77
2024/04/16 18:10:35;;;;;;;0.53;0.50;;;9.30;99.90;;;;;;15288980;19;20190;-78
2024/04/16 18:15:39;;;;;;;0.43;0.23;;;9.30;99.90;;;;;;15294410;19;20176;-78
2024/04/16 18:20:40;;;;;;;0.40;0.30;;;9.20;99.90;;;;;;15289178;19;20138;-79
2024/04/16 18:25:41;;;;;;;0.53;0.30;;;9.10;99.90;;;;;;15294694;19;20179;-77
2024/04/16 18:30:41;;;;;;;0.90;0.50;;;8.80;99.90;;;;;;15287091;19;20141;-78
2024/04/16 18:35:43;;;;;;;1.03;0.20;;;8.60;99.90;;;;;;15289204;19;20264;-77
2024/04/16 18:40:43;;;;;;;0.30;0.20;;;8.50;99.90;;;;;;15284327;19;20579;-77
2024/04/16 18:45:45;;;;;;;0.20;0.13;;;8.50;99.90;;;;;;15294409;19;20184;-77
2024/04/16 18:50:51;;;;;;;1.00;0.40;;;8.40;99.90;;;;;;15299933;19;20127;-79
2024/04/16 18:55:55;;;;;;;1.70;0.40;;;8.40;99.90;;;;;;15301617;19;20501;-79
2024/04/16 19:00:55;;;;;;;0.30;0.30;;;8.40;99.90;;;;;;15295956;19;20471;-80
2024/04/16 19:05:56;;;;;;;1.63;0.20;;;8.50;99.90;;;;;;15300163;19;20146;-78
2024/04/16 19:10:56;;;;;;;0.30;0.30;;;8.50;99.90;;;;;;15287313;19;20131;-79
2024/04/16 19:15:59;;;;;;;2.27;0.30;;;8.20;99.90;;;;;;15294111;19;20558;-79
2024/04/16 19:20:59;;;;;;;0.40;0.20;;;7.70;99.90;;;;;;15293366;19;20150;-79
2024/04/16 19:26:00;;;;;;;1.03;0.10;;;7.30;99.90;;;;;;15298770;19;20130;-79
2024/04/16 19:31:02;;;;;;;0.50;0.40;;;7.20;99.90;;;;;;15297285;19;20584;-79
2024/04/16 19:36:03;;;;;;;0.57;0.20;;;7.20;99.90;;;;;;15299446;19;20146;-79
2024/04/16 19:41:04;;;;;;;0.17;0.17;;;7.10;99.90;;;;;;15293800;19;20168;-79
2024/04/16 19:46:04;;;;;;;0.10;0.10;;;7.10;99.90;;;;;;15297349;19;20637;-79
2024/04/16 19:51:05;;;;;;;0.30;0.20;;;7.00;99.90;;;;;;15296993;19;20115;-79
2024/04/16 19:56:05;;;;;;;2.27;0.50;;;7.00;99.90;;;;;;15301292;19;20141;-79
2024/04/16 20:01:07;;;;;;;0.77;0.57;;;6.90;99.90;;;;;;15310848;19;20782;-79
2024/04/16 20:06:09;;;;;;;0.10;0.10;;;7.00;99.90;;;;;;15309842;19;20154;-78
2024/04/16 20:11:10;;;;;;;0.20;0.17;;;7.10;99.90;;;;;;15315874;19;20137;-78
2024/04/16 20:16:11;;;;;;;0.50;0.30;;;7.00;99.90;;;;;;15319816;19;20158;-79
2024/04/16 20:21:11;;;;;;;0.10;0.10;;;7.00;99.90;;;;;;15347772;19;20134;-83
2024/04/16 20:26:12;;;;;;;0.70;0.20;;;6.90;99.90;;;;;;15325709;19;20275;-79
2024/04/16 20:31:12;;;;;;;0.10;0.10;;;6.80;99.90;;;;;;15305070;19;20129;-79
2024/04/16 20:36:13;;;;;;;0.30;0.20;;;6.60;99.90;;;;;;15304921;19;20154;-78
2024/04/16 20:41:13;;;;;;;0.10;0.10;;;6.60;99.90;;;;;;15304510;19;20479;-79
2024/04/16 20:46:14;;;;;;;2.37;0.67;;;6.50;99.90;;;;;;15299242;19;20164;-79
2024/04/16 20:51:14;;;;;;;0.10;0.10;;;6.50;99.90;;;;;;15306778;19;20202;-78
2024/04/16 20:56:16;;;;;;;0.20;0.10;;;6.40;99.90;;;;;;15303408;19;20731;-80
2024/04/16 21:01:16;;;;;;;0.03;0.03;;;6.30;99.90;;;;;;15309037;19;20490;-79
2024/04/16 21:06:17;;;;;;;0.10;0.10;;;6.30;99.90;;;;;;15303646;19;20150;-79
2024/04/16 21:11:17;;;;;;;0.20;0.10;;;6.30;99.90;;;;;;15300672;19;20486;-79
2024/04/16 21:16:17;;;;;;;0.23;0.10;;;6.40;99.90;;;;;;15307565;19;20176;-79
2024/04/16 21:21:18;;;;;;;0.10;0.10;;;6.40;99.90;;;;;;15300553;19;20483;-79
2024/04/16 21:26:18;;;;;;;0.10;0.10;;;6.40;99.90;;;;;;15301195;19;20156;-78
2024/04/16 21:31:19;;;;;;;0.10;0.10;;;6.50;99.90;;;;;;15298398;19;20614;-79
2024/04/16 21:36:20;;;;;;;0.07;0.07;;;6.50;99.90;;;;;;15298775;19;20150;-78
2024/04/16 21:41:22;;;;;;;0.20;0.10;;;6.60;99.90;;;;;;15290436;19;20479;-78
2024/04/16 21:46:23;;;;;;;0.10;0.00;;;6.60;99.90;;;;;;15294830;19;20143;-79
2024/04/16 21:51:24;;;;;;;0.10;0.10;;;6.70;99.90;;;;;;15292590;19;20130;-78
2024/04/16 21:56:32;;;;;;;0.10;0.10;;;6.80;99.90;;;;;;15298142;19;20635;-79
2024/04/16 22:01:32;;;;;;;0.40;0.10;;;6.70;99.90;;;;;;15291513;19;20159;-79
2024/04/16 22:06:33;;;;;;;0.10;0.10;;;6.60;99.90;;;;;;15298726;19;20142;-79
2024/04/16 22:11:34;;;;;;;0.20;0.20;;;6.60;99.90;;;;;;15292382;19;20122;-78
2024/04/16 22:16:34;;;;;;;0.10;0.10;;;6.50;99.90;;;;;;15292379;19;20690;-78
2024/04/16 22:21:35;;;;;;;0.30;0.30;;;6.50;99.90;;;;;;15288988;19;20126;-78
2024/04/16 22:26:35;;;;;;;0.20;0.10;;;6.50;99.90;;;;;;15293737;19;20765;-79
2024/04/16 22:31:36;;;;;;;0.30;0.20;;;6.60;99.90;;;;;;15288120;19;20122;-80
2024/04/16 22:36:37;;;;;;;0.40;0.23;;;6.60;99.90;;;;;;15293396;19;20138;-79
2024/04/16 22:41:37;;;;;;;0.33;0.20;;;6.60;99.90;;;;;;15290768;19;20134;-77
2024/04/16 22:46:38;;;;;;;0.10;0.10;;;6.60;99.90;;;;;;15291075;19;20177;-79
2024/04/16 22:51:38;;;;;;;0.30;0.10;;;6.60;99.90;;;;;;15288369;19;20629;-79
2024/04/16 22:56:39;;;;;;;1.03;0.23;;;6.50;99.90;;;;;;15291905;19;20177;-79
2024/04/16 23:01:39;;;;;;;0.13;0.13;;;6.60;99.90;;;;;;15274713;19;20179;-80
2024/04/16 23:06:40;;;;;;;1.67;0.70;;;6.50;99.90;;;;;;15277342;19;20579;-79
2024/04/16 23:11:40;;;;;;;0.53;0.30;;;6.60;99.90;;;;;;15266417;19;20206;-78
2024/04/16 23:16:41;;;;;;;0.60;0.20;;;6.70;99.90;;;;;;15271728;19;20169;-78
2024/04/16 23:21:42;;;;;;;0.87;0.60;;;6.50;99.90;;;;;;15276928;19;20165;-77
2024/04/16 23:26:42;;;;;;;0.20;0.20;;;6.50;99.90;;;;;;15276140;19;20185;-78
2024/04/16 23:31:43;;;;;;;0.30;0.10;;;6.50;99.90;;;;;;15290329;19;20520;-75
2024/04/16 23:36:43;;;;;;;0.40;0.30;;;6.50;99.90;;;;;;15289860;19;20150;-78
2024/04/16 23:41:44;;;;;;;0.40;0.20;;;6.40;99.90;;;;;;15298186;19;20170;-78
2024/04/16 23:46:44;;;;;;;0.40;0.20;;;6.30;99.90;;;;;;15290041;19;20150;-74
2024/04/16 23:51:45;;;;;;;0.10;0.10;;;6.00;99.90;;;;;;15304265;19;20151;-74
2024/04/16 23:56:45;;;;;;;0.27;0.17;;;5.80;99.90;;;;;;15304158;19;20273;-76
